createdAt,value
2023-03-22T00:03:19.234Z,1040.00
2023-03-22T00:07:19.473Z,1062.00
2023-03-22T00:11:19.674Z,1043.00
2023-03-22T00:15:19.602Z,1049.00
2023-03-22T00:19:19.585Z,1033.00
2023-03-22T00:23:19.560Z,1016.00
2023-03-22T00:27:19.500Z,1018.00
2023-03-22T00:31:19.488Z,1018.00
2023-03-22T00:35:19.532Z,1024.00
2023-03-22T00:39:19.379Z,1011.00
2023-03-22T00:43:19.374Z,1002.00
2023-03-22T00:47:19.326Z,995.00
2023-03-22T00:51:19.288Z,1001.00
2023-03-22T00:55:19.249Z,982.00
2023-03-22T00:59:19.218Z,984.00
2023-03-22T01:03:19.193Z,973.00
2023-03-22T01:07:19.151Z,985.00
2023-03-22T01:11:19.150Z,970.00
2023-03-22T01:15:19.253Z,958.00
2023-03-22T01:19:19.334Z,979.00
2023-03-22T01:23:19.345Z,960.00
2023-03-22T01:27:19.384Z,971.00
2023-03-22T01:31:19.401Z,960.00
2023-03-22T01:35:19.317Z,958.00
2023-03-22T01:39:19.300Z,949.00
2023-03-22T01:43:19.527Z,968.00
2023-03-22T01:47:19.734Z,954.00
2023-03-22T01:51:19.702Z,957.00
2023-03-22T01:55:19.687Z,959.00
2023-03-22T01:59:19.626Z,944.00
2023-03-22T02:03:19.602Z,944.00
2023-03-22T02:07:19.597Z,943.00
2023-03-22T02:11:19.517Z,942.00
2023-03-22T02:15:19.487Z,954.00
2023-03-22T02:19:19.461Z,930.00
2023-03-22T02:23:19.418Z,947.00
2023-03-22T02:27:19.376Z,929.00
2023-03-22T02:31:19.428Z,926.00
2023-03-22T02:35:19.583Z,919.00
2023-03-22T02:39:19.790Z,927.00
2023-03-22T02:43:20.008Z,920.00
2023-03-22T02:47:20.188Z,940.00
2023-03-22T02:51:20.204Z,922.00
2023-03-22T02:55:20.205Z,911.00
2023-03-22T02:59:20.441Z,919.00
2023-03-22T03:03:20.628Z,911.00
2023-03-22T03:07:20.834Z,913.00
2023-03-22T03:11:21.006Z,914.00
2023-03-22T03:15:20.965Z,920.00
2023-03-22T03:19:20.965Z,902.00
2023-03-22T03:23:20.908Z,903.00
2023-03-22T03:27:20.858Z,892.00
2023-03-22T03:31:20.838Z,896.00
2023-03-22T03:35:20.825Z,893.00
2023-03-22T03:39:20.807Z,875.00
2023-03-22T03:43:20.790Z,877.00
2023-03-22T03:47:20.715Z,882.00
2023-03-22T03:51:20.642Z,864.00
2023-03-22T03:55:20.594Z,854.00
2023-03-22T03:59:20.595Z,855.00
2023-03-22T04:03:20.809Z,854.00
2023-03-22T04:07:20.944Z,861.00
2023-03-22T04:11:21.162Z,841.00
2023-03-22T04:15:21.177Z,835.00
2023-03-22T04:19:21.216Z,849.00
2023-03-22T04:23:21.414Z,824.00
2023-03-22T04:27:21.478Z,837.00
2023-03-22T04:31:21.489Z,829.00
2023-03-22T04:35:21.549Z,832.00
2023-03-22T04:39:21.646Z,820.00
2023-03-22T04:43:21.583Z,823.00
2023-03-22T04:47:21.528Z,818.00
2023-03-22T04:51:21.517Z,805.00
2023-03-22T04:55:21.523Z,815.00
2023-03-22T04:59:21.423Z,813.00
2023-03-22T05:03:21.385Z,800.00
2023-03-22T05:07:21.361Z,817.00
2023-03-22T05:11:21.337Z,805.00
2023-03-22T05:15:21.301Z,793.00
2023-03-22T05:19:21.288Z,787.00
2023-03-22T05:23:21.216Z,789.00
2023-03-22T05:27:21.158Z,809.00
2023-03-22T05:31:21.186Z,794.00
2023-03-22T05:35:21.155Z,800.00
2023-03-22T05:39:21.173Z,782.00
2023-03-22T05:43:21.336Z,802.00
2023-03-22T05:47:21.515Z,796.00
2023-03-22T05:51:21.506Z,794.00
2023-03-22T05:55:21.544Z,793.00
2023-03-22T05:59:21.721Z,813.00
2023-03-22T06:03:21.944Z,926.00
2023-03-22T06:07:21.993Z,896.00
2023-03-22T06:11:22.124Z,1177.00
2023-03-22T06:15:22.264Z,1366.00
2023-03-22T06:19:22.382Z,1529.00
2023-03-22T06:23:22.477Z,1618.00
2023-03-22T06:27:22.566Z,1663.00
2023-03-22T06:31:22.722Z,1292.00
2023-03-22T06:35:22.817Z,1144.00
2023-03-22T06:39:23.078Z,1230.00
2023-03-22T06:43:23.075Z,1214.00
2023-03-22T06:47:22.935Z,1243.00
2023-03-22T06:51:23.105Z,1633.00
2023-03-22T06:55:23.236Z,1279.00
2023-03-22T06:59:23.376Z,1280.00
2023-03-22T07:03:23.539Z,1195.00
2023-03-22T07:07:23.742Z,1239.00
2023-03-22T07:11:23.774Z,1169.00
2023-03-22T07:15:24.051Z,1354.00
2023-03-22T07:19:23.966Z,1267.00
2023-03-22T07:23:23.939Z,1232.00
2023-03-22T07:27:23.895Z,1162.00
2023-03-22T07:31:24.085Z,1157.00
2023-03-22T07:35:26.711Z,1079.00
2023-03-22T07:39:23.777Z,1112.00
2023-03-22T07:43:23.764Z,1159.00
2023-03-22T07:47:39.502Z,1168.00
2023-03-22T07:51:24.701Z,1164.00
2023-03-22T07:55:23.678Z,1121.00
2023-03-22T07:59:23.660Z,1119.00
2023-03-22T08:03:23.774Z,1102.00
2023-03-22T08:07:23.704Z,1101.00
2023-03-22T08:11:23.850Z,1096.00
2023-03-22T08:15:24.030Z,1094.00
2023-03-22T08:19:23.986Z,1078.00
2023-03-22T08:23:38.527Z,1086.00
2023-03-22T08:27:25.113Z,1088.00
2023-03-22T08:31:24.052Z,1662.00
2023-03-22T08:35:24.002Z,1017.00
2023-03-22T08:39:24.712Z,850.00
2023-03-22T08:43:24.017Z,645.00
2023-03-22T08:47:24.139Z,699.00
2023-03-22T08:51:24.203Z,550.00
2023-03-22T08:55:24.205Z,498.00
2023-03-22T08:59:24.214Z,584.00
2023-03-22T09:03:24.614Z,604.00
2023-03-22T09:07:24.364Z,525.00
2023-03-22T09:11:24.553Z,555.00
2023-03-22T09:15:24.723Z,839.00
2023-03-22T09:19:24.894Z,965.00
2023-03-22T09:23:25.136Z,1038.00
2023-03-22T09:27:24.881Z,1113.00
2023-03-22T09:31:25.009Z,1098.00
2023-03-22T09:35:24.906Z,1016.00
2023-03-22T09:39:24.801Z,673.00
2023-03-22T09:43:24.727Z,889.00
2023-03-22T09:47:28.745Z,1088.00
2023-03-22T09:51:25.701Z,1130.00
2023-03-22T09:55:24.618Z,1230.00
2023-03-22T09:59:24.773Z,1252.00
2023-03-22T10:03:24.965Z,1287.00
2023-03-22T10:07:24.971Z,1295.00
2023-03-22T10:11:25.062Z,1287.00
2023-03-22T10:15:25.188Z,1331.00
2023-03-22T10:19:25.262Z,1305.00
2023-03-22T10:23:25.374Z,1384.00
2023-03-22T10:27:26.144Z,1367.00
2023-03-22T10:31:25.721Z,537.00
2023-03-22T10:35:25.794Z,1538.00
2023-03-22T10:39:26.225Z,1856.00
2023-03-22T10:43:25.887Z,1653.00
2023-03-22T10:47:26.161Z,1696.00
2023-03-22T10:51:26.643Z,1495.00
2023-03-22T10:55:26.165Z,1555.00
2023-03-22T10:59:26.166Z,1547.00
2023-03-22T11:03:26.176Z,1476.00
2023-03-22T11:07:25.711Z,499.00
2023-03-22T11:11:25.627Z,400.00
2023-03-22T11:15:25.611Z,1434.00
2023-03-22T11:19:25.573Z,993.00
2023-03-22T11:23:25.526Z,1472.00
2023-03-22T11:27:25.493Z,1967.00
2023-03-22T11:31:25.505Z,1938.00
2023-03-22T11:35:25.513Z,944.00
2023-03-22T11:39:25.431Z,629.00
2023-03-22T11:43:25.412Z,476.00
2023-03-22T11:47:25.388Z,508.00
2023-03-22T11:51:25.324Z,493.00
2023-03-22T11:55:25.300Z,400.00
2023-03-22T11:59:25.244Z,498.00
2023-03-22T12:03:25.352Z,1071.00
2023-03-22T12:07:25.168Z,500.00
2023-03-22T12:11:25.201Z,750.00
2023-03-22T12:15:25.105Z,2092.00
2023-03-22T12:19:25.196Z,2880.00
2023-03-22T12:23:25.099Z,2219.00
2023-03-22T12:27:25.097Z,2523.00
2023-03-22T12:31:25.326Z,2447.00
2023-03-22T12:35:25.454Z,1873.00
2023-03-22T12:39:25.609Z,2717.00
2023-03-22T12:43:25.831Z,3002.00
2023-03-22T12:47:25.734Z,3192.00
2023-03-22T12:51:25.717Z,2991.00
2023-03-22T12:55:25.864Z,3179.00
2023-03-22T12:59:26.043Z,3213.00
2023-03-22T13:03:26.289Z,3324.00
2023-03-22T13:07:26.704Z,3371.00
2023-03-22T13:11:26.724Z,3391.00
2023-03-22T13:15:34.873Z,3422.00
2023-03-22T13:19:27.440Z,3404.00
2023-03-22T13:23:26.538Z,3412.00
2023-03-22T13:27:26.769Z,3395.00
2023-03-22T13:31:27.011Z,3410.00
2023-03-22T13:35:27.212Z,3410.00
2023-03-22T13:39:27.459Z,3393.00
2023-03-22T13:43:27.592Z,3397.00
2023-03-22T13:47:27.589Z,3396.00
2023-03-22T13:51:27.609Z,3364.00
2023-03-22T13:55:27.663Z,3369.00
2023-03-22T13:59:27.720Z,3344.00
2023-03-22T14:03:27.737Z,3348.00
2023-03-22T14:07:27.666Z,3335.00
2023-03-22T14:11:27.632Z,3338.00
2023-03-22T14:15:27.717Z,3280.00
2023-03-22T14:19:27.690Z,3252.00
2023-03-22T14:48:28.452Z,500.00
2023-03-22T14:52:28.438Z,510.00
2023-03-22T14:56:28.675Z,503.00
2023-03-22T15:00:28.677Z,515.00
2023-03-22T15:04:28.703Z,501.00
2023-03-22T15:08:28.680Z,503.00
2023-03-22T15:12:28.254Z,517.00
2023-03-22T15:16:28.242Z,522.00
2023-03-22T15:20:28.174Z,521.00
2023-03-22T15:24:28.136Z,527.00
2023-03-22T15:28:28.098Z,509.00
2023-03-22T15:32:28.056Z,512.00
2023-03-22T15:36:28.028Z,512.00
2023-03-22T15:40:27.983Z,516.00
2023-03-22T15:44:27.966Z,516.00
2023-03-22T15:48:27.913Z,519.00
2023-03-22T15:52:27.867Z,514.00
2023-03-22T15:56:31.881Z,514.00
2023-03-22T16:00:28.850Z,516.00
2023-03-22T16:04:27.804Z,516.00
2023-03-22T16:08:27.986Z,512.00
2023-03-22T16:12:28.123Z,514.00
2023-03-22T16:16:28.362Z,506.00
2023-03-22T16:20:29.450Z,505.00
2023-03-22T16:24:28.510Z,509.00
2023-03-22T16:28:28.634Z,504.00
2023-03-22T16:32:28.694Z,514.00
2023-03-22T16:36:28.810Z,517.00
2023-03-22T16:40:28.947Z,501.00
2023-03-22T16:44:28.888Z,532.00
2023-03-22T16:48:29.229Z,521.00
2023-03-22T16:52:28.848Z,524.00
2023-03-22T16:56:28.771Z,500.00
2023-03-22T17:00:28.737Z,520.00
2023-03-22T17:04:28.755Z,502.00
2023-03-22T17:08:28.666Z,497.00
2023-03-22T17:12:28.641Z,523.00
2023-03-22T17:16:29.589Z,539.00
2023-03-22T17:20:28.577Z,583.00
2023-03-22T17:24:28.539Z,558.00
2023-03-22T17:28:29.374Z,569.00
2023-03-22T17:32:51.015Z,560.00
2023-03-22T17:36:29.410Z,565.00
2023-03-22T17:40:37.180Z,557.00
2023-03-22T17:44:29.380Z,563.00
2023-03-22T17:48:28.399Z,573.00
2023-03-22T17:52:28.339Z,559.00
2023-03-22T17:57:03.614Z,546.00
2023-03-22T18:00:29.747Z,541.00
2023-03-22T18:04:28.267Z,534.00
2023-03-22T18:08:28.876Z,519.00
2023-03-22T18:12:28.211Z,531.00
2023-03-22T18:16:53.152Z,555.00
2023-03-22T18:20:51.053Z,544.00
2023-03-22T18:24:29.207Z,550.00
2023-03-22T18:28:28.163Z,555.00
2023-03-22T18:32:42.925Z,539.00
2023-03-22T18:36:29.167Z,533.00
2023-03-22T18:44:29.034Z,555.00
2023-03-22T18:48:28.017Z,538.00
2023-03-22T18:52:41.671Z,552.00
2023-03-22T18:56:32.270Z,529.00
2023-03-22T19:00:28.274Z,552.00
2023-03-22T19:04:28.295Z,543.00
2023-03-22T19:08:29.041Z,541.00
2023-03-22T19:12:28.260Z,541.00
2023-03-22T19:16:28.264Z,551.00
2023-03-22T19:20:35.850Z,541.00
2023-03-22T19:24:29.281Z,544.00
2023-03-22T19:28:27.804Z,553.00
2023-03-22T19:32:28.474Z,567.00
2023-03-22T19:36:28.301Z,566.00
2023-03-22T19:44:28.792Z,573.00
2023-03-22T19:48:28.259Z,569.00
2023-03-22T19:52:28.221Z,572.00
2023-03-22T19:56:28.196Z,583.00
2023-03-22T20:00:44.912Z,579.00
2023-03-22T20:04:29.117Z,575.00
2023-03-22T20:08:28.081Z,588.00
2023-03-22T20:12:28.036Z,584.00
2023-03-22T20:16:28.003Z,582.00
2023-03-22T20:20:27.963Z,588.00
2023-03-22T20:24:27.942Z,582.00
2023-03-22T20:28:27.904Z,563.00
2023-03-22T20:32:27.868Z,568.00
2023-03-22T20:36:27.838Z,579.00
2023-03-22T20:40:27.931Z,578.00
2023-03-22T20:44:28.002Z,572.00
2023-03-22T20:48:28.172Z,573.00
2023-03-22T20:52:28.376Z,581.00
2023-03-22T20:56:28.623Z,573.00
2023-03-22T21:00:28.562Z,578.00
2023-03-22T21:04:28.507Z,572.00
2023-03-22T21:08:28.480Z,574.00
2023-03-22T21:12:28.451Z,571.00
2023-03-22T21:16:28.416Z,569.00
2023-03-22T21:20:32.705Z,589.00
2023-03-22T21:24:28.354Z,588.00
2023-03-22T21:28:28.302Z,563.00
2023-03-22T21:32:28.273Z,575.00
2023-03-22T21:36:28.268Z,573.00
2023-03-22T21:40:28.271Z,574.00
2023-03-22T21:44:28.219Z,577.00
2023-03-22T21:48:28.192Z,573.00
2023-03-22T21:52:28.131Z,587.00
2023-03-22T21:56:28.111Z,582.00
2023-03-22T22:00:28.054Z,581.00
2023-03-22T22:04:28.056Z,577.00
2023-03-22T22:08:28.004Z,586.00
2023-03-22T22:12:27.947Z,576.00
2023-03-22T22:16:27.933Z,578.00
2023-03-22T22:20:27.899Z,590.00
2023-03-22T22:24:27.858Z,588.00
2023-03-22T22:28:27.817Z,598.00
2023-03-22T22:32:27.779Z,594.00
2023-03-22T22:36:27.759Z,590.00
2023-03-22T22:40:27.701Z,583.00
2023-03-22T22:44:27.853Z,595.00
2023-03-22T22:48:27.815Z,582.00
2023-03-22T22:52:27.796Z,589.00
2023-03-22T22:56:27.752Z,583.00
2023-03-22T23:00:27.698Z,585.00
2023-03-22T23:04:27.664Z,576.00
2023-03-22T23:08:27.638Z,589.00
2023-03-22T23:12:27.631Z,590.00
2023-03-22T23:16:27.570Z,582.00
2023-03-22T23:20:27.532Z,576.00
2023-03-22T23:24:27.487Z,577.00
2023-03-22T23:28:27.458Z,579.00
2023-03-22T23:32:27.407Z,576.00
2023-03-22T23:36:27.392Z,584.00
2023-03-22T23:40:27.340Z,582.00
2023-03-22T23:44:27.302Z,576.00
2023-03-22T23:48:27.278Z,583.00
2023-03-22T23:52:27.339Z,574.00
2023-03-22T23:56:27.488Z,577.00
